Time;durP1;ratioP1;P1;durP2;ratioP2;P2;SDS_P1;SDS_P2;PMS_P1;PMS_P2;Temp;Humidity;BMP_temperature;BMP_pressure;BME280_temperature;BME280_humidity;BME280_pressure;Samples;Min_cycle;Max_cycle;Signal;HPM_P1;HPM_P2
2022/01/15 00:00:50;;;;;;;48.57;22.30;;;2.80;1.00;3.60;67053.00;;;;5033023;28;20470;-83
2022/01/15 00:03:18;;;;;;;45.33;21.87;;;2.80;1.00;3.60;102078.00;;;;5052593;28;20469;-79
2022/01/15 00:05:48;;;;;;;42.80;20.87;;;2.70;1.00;3.60;67046.00;;;;5030641;28;20460;-79
2022/01/15 00:08:16;;;;;;;44.53;22.33;;;2.70;1.00;3.50;67025.00;;;;5024616;28;20460;-79
2022/01/15 00:10:45;;;;;;;50.60;23.60;;;2.70;1.00;3.50;67016.00;;;;5013877;28;20461;-78
2022/01/15 00:13:23;;;;;;;58.73;25.83;;;2.70;1.00;3.50;67037.00;;;;5018081;28;20449;-79
2022/01/15 00:16:02;;;;;;;56.13;24.53;;;2.70;1.00;3.60;67046.00;;;;5017426;28;20501;-80
2022/01/15 00:18:41;;;;;;;61.90;24.03;;;2.80;1.00;3.60;102073.00;;;;5019360;28;20483;-79
2022/01/15 00:21:13;;;;;;;56.10;24.23;;;2.90;1.00;3.60;102061.00;;;;5019271;28;20493;-78
2022/01/15 00:23:43;;;;;;;55.00;24.80;;;2.90;1.00;3.70;102060.00;;;;5044695;28;20506;-79
2022/01/15 00:26:11;;;;;;;62.93;25.57;;;2.90;1.00;3.70;102065.00;;;;5021957;28;20571;-79
2022/01/15 00:28:40;;;;;;;52.80;24.10;;;2.80;1.00;3.70;102072.00;;;;5033252;28;21366;-80
2022/01/15 00:31:08;;;;;;;45.73;21.47;;;2.80;1.00;3.60;102091.00;;;;5037469;28;20472;-80
2022/01/15 00:33:36;;;;;;;46.40;19.33;;;2.70;1.00;3.60;102083.00;;;;5042221;28;20484;-80
2022/01/15 00:36:06;;;;;;;40.17;20.53;;;2.90;1.00;3.70;102077.00;;;;5029362;28;20690;-81
2022/01/15 00:38:35;;;;;;;41.53;19.20;;;2.80;1.00;3.70;102090.00;;;;5022997;28;20468;-80
2022/01/15 00:41:04;;;;;;;40.70;20.20;;;2.80;1.00;3.80;67080.00;;;;5027132;28;20480;-80
2022/01/15 00:43:32;;;;;;;50.33;20.70;;;2.90;1.00;3.70;102082.00;;;;5019117;28;20464;-80
2022/01/15 00:46:01;;;;;;;42.30;20.40;;;2.90;1.00;3.60;102068.00;;;;5020696;28;20935;-80
2022/01/15 00:48:29;;;;;;;41.50;19.70;;;2.80;1.00;3.60;67060.00;;;;5025643;28;20456;-78
2022/01/15 00:50:57;;;;;;;42.70;21.23;;;2.90;1.00;3.70;102072.00;;;;5020573;28;21001;-80
2022/01/15 00:53:26;;;;;;;38.60;21.60;;;2.80;1.00;52.70;158251.00;;;;5019482;28;20461;-80
2022/01/15 00:55:55;;;;;;;36.33;20.30;;;2.80;1.00;3.70;102058.00;;;;5020124;28;20967;-80
2022/01/15 00:58:24;;;;;;;33.20;17.77;;;2.90;1.00;3.80;102050.00;;;;5021336;28;20786;-80
2022/01/15 01:00:52;;;;;;;38.80;19.80;;;2.90;1.00;3.90;102050.00;;;;5019557;28;20477;-79
2022/01/15 01:03:20;;;;;;;32.40;17.77;;;3.00;1.00;3.90;102048.00;;;;5021069;28;20456;-80
2022/01/15 01:05:48;;;;;;;32.53;18.20;;;3.10;1.00;3.90;102052.00;;;;5024158;28;20452;-80
2022/01/15 01:08:17;;;;;;;36.73;18.50;;;3.00;1.00;52.70;158360.00;;;;5021194;28;20468;-79
2022/01/15 01:10:55;;;;;;;38.27;18.60;;;3.00;1.00;3.90;102052.00;;;;5017825;28;20461;-79
2022/01/15 01:24:30;;;;;;;46.13;21.30;;;3.00;1.00;3.90;102052.00;;;;5017881;28;20457;-79
2022/01/15 01:27:02;;;;;;;52.73;22.30;;;3.20;1.00;3.90;102051.00;;;;5017526;28;20468;-78
2022/01/15 01:29:40;;;;;;;54.07;23.57;;;3.10;1.00;3.90;102030.00;;;;5018839;28;20457;-79
2022/01/15 01:32:14;;;;;;;47.13;21.40;;;3.20;1.00;3.90;102011.00;;;;5012471;28;20487;-78
2022/01/15 01:34:46;;;;;;;46.43;20.83;;;3.10;1.00;3.90;102036.00;;;;5011754;28;20453;-78
2022/01/15 01:37:18;;;;;;;43.77;20.20;;;3.20;1.00;4.00;102025.00;;;;5008102;28;20519;-78
2022/01/15 01:39:50;;;;;;;43.53;20.77;;;3.20;1.00;4.00;102034.00;;;;5015442;28;20468;-79
2022/01/15 01:42:40;;;;;;;47.77;20.70;;;3.10;1.00;4.00;102023.00;;;;5011668;28;20481;-79
2022/01/15 01:45:14;;;;;;;43.57;20.73;;;3.10;1.00;217.30;158406.00;;;;5012373;28;20442;-79
2022/01/15 01:47:45;;;;;;;41.07;21.40;;;3.20;1.00;4.10;102034.00;;;;5017618;28;20449;-79
2022/01/15 01:50:17;;;;;;;48.60;22.03;;;3.10;1.00;4.10;102003.00;;;;5016037;28;21397;-79
2022/01/15 01:52:48;;;;;;;43.83;22.10;;;3.20;1.00;217.30;158463.00;;;;5021220;28;20492;-80
2022/01/15 01:55:18;;;;;;;46.53;21.93;;;3.20;1.00;4.20;102011.00;;;;5021561;28;20459;-78
2022/01/15 01:57:47;;;;;;;41.40;21.40;;;3.30;1.00;217.30;158431.00;;;;5023471;28;20460;-80
2022/01/15 02:00:20;;;;;;;55.23;26.60;;;3.20;1.00;4.10;101995.00;;;;5029034;28;20545;-80
2022/01/15 02:02:49;;;;;;;49.27;22.70;;;3.10;1.00;217.30;158443.00;;;;5031545;28;20485;-78
2022/01/15 02:05:19;;;;;;;48.07;23.60;;;3.30;1.00;4.20;102006.00;;;;5017764;28;20460;-79
2022/01/15 02:07:48;;;;;;;48.50;22.57;;;3.30;1.00;4.20;67176.00;;;;5014566;28;21376;-77
2022/01/15 02:10:20;;;;;;;53.93;23.60;;;3.30;1.00;4.20;101998.00;;;;5012204;28;20473;-78
2022/01/15 02:12:51;;;;;;;50.23;23.70;;;3.30;1.00;4.30;102007.00;;;;5010869;28;20477;-78
2022/01/15 02:15:23;;;;;;;54.70;25.60;;;3.30;1.00;4.30;101995.00;;;;5012448;28;20971;-80
2022/01/15 02:17:52;;;;;;;51.90;23.97;;;3.30;1.00;4.30;101994.00;;;;5014828;28;20461;-78
2022/01/15 02:21:01;;;;;;;50.50;23.87;;;3.30;1.00;4.30;67210.00;;;;5013841;28;20469;-78
2022/01/15 02:23:33;;;;;;;48.70;22.70;;;3.50;1.00;4.30;101999.00;;;;5017343;28;20461;-80
2022/01/15 02:26:05;;;;;;;56.30;25.27;;;3.40;1.00;4.30;101994.00;;;;5019546;28;20463;-79
2022/01/15 02:28:37;;;;;;;45.27;22.77;;;3.40;1.00;4.20;102007.00;;;;5020970;28;20484;-78
2022/01/15 02:31:08;;;;;;;51.83;22.03;;;3.40;1.00;217.30;158493.00;;;;5011974;28;21010;-78
2022/01/15 02:33:38;;;;;;;50.77;23.33;;;3.40;1.00;4.20;102005.00;;;;5020812;28;20797;-78
2022/01/15 02:36:10;;;;;;;52.97;23.07;;;3.30;1.00;4.20;101997.00;;;;5030964;28;20462;-79
2022/01/15 02:38:39;;;;;;;54.90;23.47;;;3.40;1.00;4.20;101986.00;;;;5036115;28;20536;-79
2022/01/15 02:41:08;;;;;;;56.10;25.57;;;3.40;1.00;4.30;101980.00;;;;5031242;28;20492;-79
2022/01/15 02:43:37;;;;;;;54.80;23.57;;;3.30;1.00;4.20;101979.00;;;;5039011;28;20457;-78
2022/01/15 02:46:20;;;;;;;52.40;23.93;;;3.10;1.00;4.30;101974.00;;;;5022013;28;20492;-78
2022/01/15 02:48:52;;;;;;;56.33;24.10;;;3.40;1.00;4.30;101979.00;;;;5037694;28;20977;-79
2022/01/15 02:51:24;;;;;;;61.73;25.70;;;3.50;1.00;4.20;101976.00;;;;5015970;28;20483;-79
2022/01/15 02:53:55;;;;;;;56.83;26.30;;;3.50;1.00;4.20;101980.00;;;;5011288;28;20475;-79
2022/01/15 02:56:25;;;;;;;59.97;24.87;;;3.40;1.00;4.20;101982.00;;;;5011691;28;20549;-79
2022/01/15 02:58:53;;;;;;;56.37;23.80;;;3.40;1.00;4.20;101993.00;;;;5015210;28;20513;-79
2022/01/15 03:01:22;;;;;;;56.33;25.30;;;3.40;1.00;4.20;101979.00;;;;5013703;28;20495;-79
2022/01/15 03:03:52;;;;;;;48.57;22.90;;;3.40;1.00;4.20;101982.00;;;;5017471;28;20461;-78
2022/01/15 03:06:23;;;;;;;49.67;22.93;;;3.30;1.00;4.20;101966.00;;;;5015618;28;21666;-78
2022/01/15 03:08:53;;;;;;;49.43;22.00;;;3.40;1.00;4.30;101956.00;;;;5017489;28;20460;-78
2022/01/15 03:11:23;;;;;;;53.20;23.37;;;3.50;1.00;4.30;101972.00;;;;5018979;28;20487;-79
2022/01/15 03:13:51;;;;;;;50.37;23.93;;;3.50;1.00;217.30;158520.00;;;;5020983;28;20454;-78
2022/01/15 03:16:22;;;;;;;55.77;24.50;;;3.40;1.00;4.30;101960.00;;;;5019663;28;20464;-79
2022/01/15 03:18:51;;;;;;;51.43;24.30;;;3.70;1.00;4.30;67212.00;;;;5018328;28;20468;-79
2022/01/15 03:21:21;;;;;;;56.27;22.60;;;3.50;1.00;4.30;101956.00;;;;5016228;28;20504;-78
2022/01/15 03:23:50;;;;;;;54.13;23.90;;;3.50;1.00;4.40;101964.00;;;;5014668;28;21383;-79
2022/01/15 03:26:18;;;;;;;68.13;26.83;;;3.60;1.00;4.40;101966.00;;;;5013838;28;20827;-79
2022/01/15 03:28:46;;;;;;;55.20;24.80;;;3.60;1.00;4.30;101956.00;;;;5016099;28;21200;-79
2022/01/15 03:31:15;;;;;;;60.20;25.37;;;3.50;1.00;4.30;101960.00;;;;5015810;28;20997;-78
2022/01/15 03:33:43;;;;;;;64.60;26.00;;;3.50;1.00;4.30;101968.00;;;;5013273;28;20463;-79
2022/01/15 03:36:11;;;;;;;64.47;24.93;;;3.40;1.00;217.30;158514.00;;;;5013656;28;20465;-79
2022/01/15 03:38:41;;;;;;;62.30;24.43;;;3.40;1.00;4.30;101970.00;;;;5016068;28;20502;-78
2022/01/15 03:41:09;;;;;;;52.97;23.57;;;3.60;1.00;4.30;101960.00;;;;5014940;28;20507;-79
2022/01/15 03:43:37;;;;;;;58.90;23.63;;;3.40;1.00;4.30;67203.00;;;;5019510;28;20453;-79
2022/01/15 03:46:06;;;;;;;48.17;22.40;;;3.40;1.00;4.30;67205.00;;;;5016047;28;20511;-79
2022/01/15 03:48:34;;;;;;;50.93;24.00;;;3.40;1.00;4.30;101953.00;;;;5009256;28;20963;-78
2022/01/15 03:51:04;;;;;;;52.37;22.87;;;3.40;1.00;4.40;101954.00;;;;5011632;28;20481;-78
2022/01/15 03:53:32;;;;;;;51.80;25.03;;;3.50;1.00;4.40;101938.00;;;;5012648;28;20461;-79
2022/01/15 03:56:02;;;;;;;49.07;23.23;;;3.50;1.00;4.40;101947.00;;;;5023293;28;20499;-78
2022/01/15 03:58:30;;;;;;;47.33;24.13;;;3.50;1.00;4.50;101946.00;;;;5010998;28;21429;-78
2022/01/15 04:00:58;;;;;;;46.20;23.57;;;3.60;1.00;4.60;101943.00;;;;5009966;28;20913;-78
2022/01/15 04:03:27;;;;;;;47.83;22.40;;;3.70;1.00;4.60;101941.00;;;;5008636;28;20471;-78
2022/01/15 04:05:55;;;;;;;47.97;24.23;;;3.70;1.00;4.70;101939.00;;;;5010855;28;20461;-78
2022/01/15 04:08:24;;;;;;;41.67;23.17;;;3.80;1.00;217.30;158643.00;;;;5009916;28;20448;-78
2022/01/15 04:10:52;;;;;;;47.37;24.87;;;3.70;1.00;52.70;158705.00;;;;5016874;28;20457;-78
2022/01/15 04:13:21;;;;;;;42.97;22.80;;;3.80;1.00;4.70;101932.00;;;;5007690;28;20982;-78
2022/01/15 04:15:52;;;;;;;43.97;22.23;;;3.90;1.00;4.70;101928.00;;;;5033428;28;20460;-78
2022/01/15 04:18:22;;;;;;;40.13;20.17;;;3.80;1.00;4.80;101929.00;;;;5013354;28;20461;-78
2022/01/15 04:20:51;;;;;;;46.43;22.83;;;3.90;1.00;4.80;101918.00;;;;5012565;28;20473;-78
2022/01/15 04:23:19;;;;;;;44.03;21.90;;;3.90;1.00;4.80;101933.00;;;;5010186;28;20986;-79
2022/01/15 04:25:47;;;;;;;40.70;21.80;;;3.90;1.00;4.80;101926.00;;;;5011400;28;20469;-79
2022/01/15 04:28:15;;;;;;;40.10;21.97;;;3.90;1.00;4.80;101929.00;;;;5013006;28;20467;-79
2022/01/15 04:30:47;;;;;;;37.47;19.77;;;3.90;1.00;4.80;101936.00;;;;5011553;28;20465;-79
2022/01/15 04:33:19;;;;;;;40.97;21.80;;;3.90;1.00;4.80;101925.00;;;;5012583;28;20493;-79
2022/01/15 04:35:47;;;;;;;32.70;19.30;;;3.90;1.00;4.80;67319.00;;;;5042255;28;20468;-78
2022/01/15 04:38:15;;;;;;;34.53;19.80;;;3.90;1.00;4.80;101905.00;;;;5026988;28;20450;-78
2022/01/15 04:40:43;;;;;;;35.53;19.80;;;3.90;1.00;4.80;101919.00;;;;5018994;28;20452;-79
2022/01/15 04:43:12;;;;;;;37.50;19.00;;;3.80;1.00;4.80;101908.00;;;;5017563;28;20477;-79
2022/01/15 04:45:40;;;;;;;42.77;21.30;;;3.80;1.00;4.80;101911.00;;;;5019204;28;20484;-80
2022/01/15 04:48:10;;;;;;;33.50;19.10;;;3.80;1.00;217.30;158681.00;;;;5016510;28;20476;-79
2022/01/15 04:50:38;;;;;;;33.70;17.90;;;3.80;1.00;4.70;101913.00;;;;5016031;28;20459;-80
2022/01/15 04:53:08;;;;;;;31.50;17.40;;;3.80;1.00;4.70;101901.00;;;;5017281;28;20468;-79
2022/01/15 04:55:38;;;;;;;26.60;15.73;;;3.80;1.00;4.60;101898.00;;;;5015582;28;20450;-79
2022/01/15 04:58:08;;;;;;;27.43;17.13;;;3.80;1.00;4.80;101896.00;;;;5012286;28;20463;-79
2022/01/15 05:00:36;;;;;;;27.83;17.17;;;3.80;1.00;4.70;67311.00;;;;5012893;28;20473;-78
2022/01/15 05:03:05;;;;;;;27.57;16.37;;;3.80;1.00;4.80;101913.00;;;;5009756;28;20477;-78
2022/01/15 05:05:35;;;;;;;32.13;16.33;;;3.80;1.00;4.80;67319.00;;;;5013373;28;20462;-79
2022/01/15 05:08:06;;;;;;;32.03;17.00;;;3.90;1.00;4.90;101896.00;;;;5016747;28;20453;-79
2022/01/15 05:10:34;;;;;;;22.63;15.07;;;3.90;1.00;4.90;101887.00;;;;5016622;28;20464;-80
2022/01/15 05:13:03;;;;;;;22.13;14.10;;;4.00;1.00;4.90;101897.00;;;;5016414;28;21204;-79
2022/01/15 05:15:31;;;;;;;20.10;13.83;;;4.00;1.00;4.90;67333.00;;;;5014380;28;20464;-78
2022/01/15 05:17:59;;;;;;;21.63;14.17;;;4.00;1.00;4.80;101882.00;;;;5010877;28;20466;-78
2022/01/15 05:20:28;;;;;;;21.90;13.63;;;3.90;1.00;4.90;101883.00;;;;5021041;28;20479;-78
2022/01/15 05:22:57;;;;;;;19.27;13.57;;;4.00;1.00;4.90;67339.00;;;;5015358;28;20543;-78
2022/01/15 05:25:26;;;;;;;20.33;13.37;;;4.00;1.00;4.90;101884.00;;;;5020019;28;20471;-78
2022/01/15 05:27:54;;;;;;;17.10;12.87;;;4.00;1.00;4.90;101878.00;;;;5027996;28;20469;-79
2022/01/15 05:30:22;;;;;;;20.50;14.60;;;4.00;1.00;4.90;101877.00;;;;5032361;28;20470;-79
2022/01/15 05:32:50;;;;;;;19.07;13.07;;;4.00;1.00;4.90;101859.00;;;;5028255;28;20499;-78
2022/01/15 05:35:25;;;;;;;18.50;13.60;;;4.10;1.00;4.90;67348.00;;;;5030649;28;20464;-77
2022/01/15 05:37:54;;;;;;;17.20;12.80;;;4.00;1.00;217.30;158806.00;;;;5022620;28;20464;-79
2022/01/15 05:40:24;;;;;;;19.17;13.47;;;4.00;1.00;5.00;101858.00;;;;5023530;28;20461;-79
2022/01/15 05:42:53;;;;;;;19.47;12.40;;;4.10;1.00;4.90;101863.00;;;;5023502;28;20896;-80
2022/01/15 05:45:24;;;;;;;18.00;13.03;;;4.10;1.00;5.00;101871.00;;;;5019320;28;20449;-79
2022/01/15 05:47:53;;;;;;;19.13;13.57;;;4.10;1.00;4.90;67353.00;;;;5017595;28;20457;-79
2022/01/15 05:50:21;;;;;;;18.67;12.53;;;4.00;1.00;5.00;101871.00;;;;5017955;28;20461;-78
2022/01/15 05:52:50;;;;;;;18.10;13.60;;;4.10;1.00;5.00;101885.00;;;;5018840;28;20534;-79
2022/01/15 05:55:18;;;;;;;23.43;15.47;;;4.10;1.00;5.00;101861.00;;;;5023977;28;20442;-79
2022/01/15 05:57:48;;;;;;;20.03;13.10;;;4.20;1.00;5.00;101865.00;;;;5047096;28;20447;-80
2022/01/15 06:00:17;;;;;;;19.17;14.17;;;4.20;1.00;5.00;101879.00;;;;5051147;28;20475;-79
2022/01/15 06:02:45;;;;;;;24.40;15.67;;;4.10;1.00;5.00;101860.00;;;;5034313;28;20479;-77
2022/01/15 06:05:14;;;;;;;22.43;13.00;;;4.20;1.00;5.00;101859.00;;;;5030242;28;20453;-78
2022/01/15 06:07:42;;;;;;;19.33;12.90;;;4.20;1.00;4.90;101871.00;;;;5022369;28;20453;-78
2022/01/15 06:10:11;;;;;;;18.60;13.40;;;4.10;1.00;5.00;101853.00;;;;5018807;28;20457;-78
2022/01/15 06:12:43;;;;;;;19.67;12.70;;;4.20;1.00;5.10;101870.00;;;;5024151;28;20476;-78
2022/01/15 06:15:15;;;;;;;19.63;13.37;;;4.30;1.00;5.10;101865.00;;;;5028037;28;20529;-78
2022/01/15 06:17:43;;;;;;;20.83;13.50;;;4.30;1.00;217.30;158858.00;;;;5028786;28;20524;-77
2022/01/15 06:20:14;;;;;;;22.53;14.13;;;4.20;1.00;5.10;101870.00;;;;5022134;28;20475;-78
2022/01/15 06:22:43;;;;;;;23.63;15.40;;;4.20;1.00;5.10;101855.00;;;;5015466;28;21004;-78
2022/01/15 06:25:12;;;;;;;22.00;14.97;;;4.40;1.00;5.20;67395.00;;;;5024120;28;20457;-78
2022/01/15 06:27:40;;;;;;;20.40;14.10;;;4.30;1.00;217.30;158879.00;;;;5027653;28;20843;-78
2022/01/15 06:30:09;;;;;;;21.30;14.20;;;4.30;1.00;5.10;101870.00;;;;5032900;28;20574;-78
2022/01/15 06:32:38;;;;;;;19.20;14.63;;;4.20;1.00;5.10;101880.00;;;;5033670;28;21021;-79
2022/01/15 06:35:10;;;;;;;21.30;13.90;;;4.20;1.00;5.10;101851.00;;;;5021677;28;20930;-78
2022/01/15 06:37:39;;;;;;;19.60;12.80;;;4.30;1.00;5.10;101851.00;;;;5014188;28;20464;-79
2022/01/15 06:40:09;;;;;;;21.63;13.63;;;4.20;1.00;5.10;101860.00;;;;5017365;28;20481;-79
2022/01/15 06:42:38;;;;;;;19.17;12.87;;;4.30;1.00;5.10;101851.00;;;;5013547;28;21014;-78
2022/01/15 06:45:07;;;;;;;17.93;13.10;;;4.30;1.00;5.10;67378.00;;;;5016372;28;20465;-79
2022/01/15 06:47:38;;;;;;;22.73;13.20;;;4.20;1.00;5.10;101837.00;;;;5022543;28;20452;-79
2022/01/15 06:50:09;;;;;;;20.03;13.43;;;4.30;1.00;5.10;101852.00;;;;5021527;28;20452;-79
2022/01/15 06:52:39;;;;;;;19.40;12.20;;;4.30;1.00;217.30;158879.00;;;;5020326;28;20492;-79
2022/01/15 06:55:10;;;;;;;19.87;13.03;;;4.30;1.00;5.10;101823.00;;;;5020769;28;20458;-78
2022/01/15 06:57:39;;;;;;;15.50;11.43;;;4.20;1.00;5.10;101797.00;;;;5023536;28;20472;-79
2022/01/15 07:00:11;;;;;;;19.57;12.30;;;4.30;1.00;5.10;101796.00;;;;5037997;28;20464;-79
2022/01/15 07:02:42;;;;;;;17.37;11.50;;;4.30;1.00;5.10;67390.00;;;;5050090;28;20515;-79
2022/01/15 07:05:11;;;;;;;14.30;10.23;;;4.40;1.00;5.10;101793.00;;;;5038805;28;20458;-78
2022/01/15 07:07:44;;;;;;;16.27;10.80;;;4.40;1.00;5.10;101795.00;;;;5037962;28;20446;-79
2022/01/15 07:10:15;;;;;;;18.17;11.40;;;4.50;1.00;5.10;101845.00;;;;5026358;28;20468;-78
2022/01/15 07:12:49;;;;;;;17.53;12.33;;;4.30;1.00;5.10;101861.00;;;;5014822;28;20495;-79
2022/01/15 07:15:17;;;;;;;16.90;11.17;;;4.30;1.00;5.00;67378.00;;;;5015779;28;20471;-79
2022/01/15 07:17:48;;;;;;;15.80;10.77;;;4.30;1.00;5.00;101864.00;;;;5016133;28;20456;-78
2022/01/15 07:20:20;;;;;;;16.60;10.20;;;4.20;1.00;5.00;101864.00;;;;5022081;28;20471;-78
2022/01/15 07:22:48;;;;;;;16.50;10.17;;;4.10;1.00;5.10;67371.00;;;;5019221;28;21043;-78
2022/01/15 07:25:16;;;;;;;17.07;11.87;;;4.20;1.00;5.00;101870.00;;;;5016230;28;20470;-78
2022/01/15 07:27:45;;;;;;;21.57;12.20;;;4.10;1.00;5.10;101865.00;;;;5029533;28;20850;-79
2022/01/15 07:30:15;;;;;;;17.30;11.20;;;4.30;1.00;5.20;101852.00;;;;5016133;28;21190;-78
2022/01/15 07:32:44;;;;;;;15.43;10.70;;;4.30;1.00;5.20;101849.00;;;;5013929;28;21399;-77
2022/01/15 07:35:17;;;;;;;16.60;10.07;;;4.40;1.00;5.20;101875.00;;;;5011175;28;20481;-78
2022/01/15 07:37:45;;;;;;;14.67;10.90;;;4.30;1.00;5.20;101861.00;;;;5012422;28;20488;-79
2022/01/15 07:40:14;;;;;;;14.13;9.30;;;4.30;1.00;5.20;67410.00;;;;5016442;28;20459;-78
2022/01/15 07:42:42;;;;;;;17.27;11.20;;;4.40;1.00;5.20;67414.00;;;;5012746;28;20487;-78
2022/01/15 07:45:13;;;;;;;20.20;12.57;;;4.40;1.00;5.20;101881.00;;;;5012335;28;20474;-78
2022/01/15 07:47:43;;;;;;;29.53;15.53;;;4.50;1.00;5.20;101855.00;;;;5014592;28;20469;-80
2022/01/15 07:50:23;;;;;;;30.10;15.90;;;4.50;1.00;5.10;67378.00;;;;5017470;28;20475;-79
2022/01/15 07:52:52;;;;;;;29.40;15.83;;;4.50;1.00;5.10;101880.00;;;;5021582;28;20487;-79
2022/01/15 07:55:21;;;;;;;28.57;15.40;;;4.40;1.00;5.10;101870.00;;;;5022461;28;20475;-79
2022/01/15 07:58:02;;;;;;;31.40;15.83;;;4.40;1.00;5.00;101877.00;;;;5020828;28;20461;-79
2022/01/15 08:00:31;;;;;;;32.13;17.10;;;4.30;1.00;5.10;101876.00;;;;5021682;28;20469;-79
2022/01/15 08:02:59;;;;;;;28.50;16.30;;;4.30;1.00;5.10;101875.00;;;;5020398;28;20488;-79
2022/01/15 08:05:29;;;;;;;30.43;16.80;;;4.40;1.00;5.10;101878.00;;;;5017366;28;20560;-78
2022/01/15 08:07:58;;;;;;;30.03;16.60;;;4.50;1.00;5.10;101876.00;;;;5012595;28;20886;-79
2022/01/15 08:10:26;;;;;;;30.10;17.70;;;4.50;1.00;5.10;101876.00;;;;5011009;28;20476;-79
2022/01/15 08:12:55;;;;;;;29.90;16.03;;;4.60;1.00;52.70;158929.00;;;;5015409;28;20488;-81
2022/01/15 08:15:25;;;;;;;28.03;15.90;;;4.60;1.00;5.30;101873.00;;;;5011314;28;20860;-77
2022/01/15 08:17:53;;;;;;;25.23;13.50;;;4.80;1.00;5.40;101879.00;;;;5011916;28;21295;-78
2022/01/15 08:20:22;;;;;;;26.13;14.83;;;4.70;1.00;5.40;101861.00;;;;5015226;28;20471;-79
2022/01/15 08:22:52;;;;;;;24.80;13.83;;;4.70;1.00;5.50;101870.00;;;;5013665;28;20542;-78
2022/01/15 08:25:22;;;;;;;31.40;17.30;;;4.70;1.00;5.50;101861.00;;;;5013327;28;20485;-79
2022/01/15 08:27:52;;;;;;;28.70;15.97;;;4.70;1.00;5.50;67484.00;;;;5013629;28;20457;-79
2022/01/15 08:30:22;;;;;;;24.57;14.40;;;4.70;1.00;5.50;101865.00;;;;5013931;28;20770;-79
2022/01/15 08:32:51;;;;;;;21.80;12.40;;;4.70;1.00;5.50;101855.00;;;;5013123;28;20513;-79
2022/01/15 08:35:20;;;;;;;23.57;13.40;;;4.70;1.00;5.60;101879.00;;;;5014656;28;20824;-80
2022/01/15 08:37:49;;;;;;;25.40;14.20;;;4.70;1.00;5.60;101854.00;;;;5020105;28;20451;-79
2022/01/15 08:40:20;;;;;;;18.90;12.33;;;4.80;1.00;5.70;101852.00;;;;5025225;28;20467;-79
2022/01/15 08:42:49;;;;;;;19.47;11.40;;;4.90;1.00;5.80;101864.00;;;;5030248;28;20576;-79
2022/01/15 08:45:19;;;;;;;20.73;12.63;;;4.90;1.00;5.80;101861.00;;;;5021317;28;20476;-80
2022/01/15 08:47:48;;;;;;;16.93;10.63;;;4.90;1.00;5.90;67568.00;;;;5023961;28;20455;-80
2022/01/15 08:50:17;;;;;;;18.10;12.30;;;5.20;1.00;6.00;101857.00;;;;5019317;28;20816;-79
2022/01/15 08:52:45;;;;;;;15.63;10.70;;;5.20;1.00;6.00;101858.00;;;;5045178;28;20483;-79
2022/01/15 08:55:15;;;;;;;14.23;10.40;;;5.20;1.00;5.90;101852.00;;;;5019525;28;20466;-79
2022/01/15 08:57:45;;;;;;;15.00;10.80;;;5.10;1.00;6.00;101840.00;;;;5043340;28;20459;-80
2022/01/15 09:00:18;;;;;;;11.73;8.00;;;5.20;1.00;6.00;101829.00;;;;5020376;28;20498;-79
2022/01/15 09:02:46;;;;;;;10.93;8.10;;;5.10;1.00;6.10;101843.00;;;;5019726;28;20476;-79
2022/01/15 09:05:15;;;;;;;10.17;7.73;;;5.20;1.00;6.00;101829.00;;;;5017769;28;20575;-78
2022/01/15 09:07:43;;;;;;;10.90;8.37;;;5.30;1.00;6.00;101841.00;;;;5016977;28;20468;-78
2022/01/15 09:10:15;;;;;;;10.27;7.90;;;5.30;1.00;6.00;101828.00;;;;5023468;28;20512;-79
2022/01/15 09:12:45;;;;;;;11.33;7.80;;;5.20;1.00;6.00;101835.00;;;;5016443;28;20464;-79
2022/01/15 09:15:30;;;;;;;11.60;8.40;;;5.10;1.00;6.00;101826.00;;;;5019560;28;20481;-78
2022/01/15 09:17:58;;;;;;;10.27;7.40;;;5.10;1.00;6.10;101847.00;;;;5018901;28;20449;-80
2022/01/15 09:20:28;;;;;;;10.43;7.33;;;5.20;1.00;6.00;101836.00;;;;5019941;28;20456;-80
2022/01/15 09:22:56;;;;;;;9.77;7.30;;;5.20;1.00;6.10;101839.00;;;;5017186;28;20484;-79
2022/01/15 09:25:26;;;;;;;9.73;7.17;;;5.30;1.00;6.10;67612.00;;;;5021414;28;21050;-79
2022/01/15 09:30:44;;;;;;;9.13;6.73;;;5.50;1.00;6.20;101846.00;;;;5021391;28;20460;-78
2022/01/15 09:33:13;;;;;;;8.33;7.03;;;5.50;1.00;6.30;101828.00;;;;5018482;28;20457;-78
2022/01/15 09:35:41;;;;;;;10.07;7.90;;;5.60;1.00;6.30;101828.00;;;;5020967;28;20464;-78
2022/01/15 09:38:10;;;;;;;12.07;8.93;;;5.50;1.00;6.40;101826.00;;;;5049676;28;20449;-79
2022/01/15 09:40:41;;;;;;;9.90;8.17;;;5.70;1.00;6.50;101818.00;;;;5038642;28;20465;-78
2022/01/15 09:43:11;;;;;;;9.77;8.10;;;5.90;1.00;6.70;101822.00;;;;5018804;28;20449;-78
2022/01/15 09:45:45;;;;;;;10.40;8.33;;;6.10;1.00;6.70;101833.00;;;;5017532;28;20488;-79
2022/01/15 09:48:17;;;;;;;9.80;7.90;;;6.00;1.00;6.70;101821.00;;;;5017388;28;20826;-79
2022/01/15 09:50:47;;;;;;;10.70;8.07;;;5.90;1.00;6.60;101823.00;;;;5025840;28;20458;-78
2022/01/15 09:53:17;;;;;;;12.07;8.80;;;5.80;1.00;6.60;101827.00;;;;5029260;28;20468;-79
2022/01/15 09:55:46;;;;;;;13.03;7.70;;;5.90;1.00;6.70;67726.00;;;;5023632;28;20461;-79
2022/01/15 09:58:17;;;;;;;11.57;8.40;;;5.90;1.00;6.60;67715.00;;;;5018102;28;20461;-78
2022/01/15 10:00:46;;;;;;;11.10;8.60;;;5.90;1.00;6.70;101822.00;;;;5015021;28;20487;-78
2022/01/15 10:03:15;;;;;;;10.90;8.60;;;6.00;1.00;6.70;101819.00;;;;5018789;28;20467;-78
2022/01/15 10:05:44;;;;;;;9.93;8.40;;;5.90;1.00;6.60;101827.00;;;;5018971;28;20476;-78
2022/01/15 10:08:13;;;;;;;9.70;8.00;;;5.80;1.00;6.50;101814.00;;;;5017178;28;20544;-79
2022/01/15 10:10:49;;;;;;;11.57;8.33;;;5.60;1.00;6.50;101809.00;;;;5019095;28;21398;-79
2022/01/15 10:13:23;;;;;;;11.90;8.30;;;5.70;1.00;6.50;101812.00;;;;5017553;28;20851;-78
2022/01/15 10:16:13;;;;;;;10.60;8.70;;;5.60;1.00;6.60;67715.00;;;;5018138;28;20465;-79
2022/01/15 10:18:45;;;;;;;11.33;8.80;;;5.80;1.00;6.60;67729.00;;;;5021650;28;20484;-79
2022/01/15 10:21:17;;;;;;;10.07;8.20;;;5.90;1.00;6.60;101812.00;;;;5019745;28;20488;-79
2022/01/15 10:23:48;;;;;;;11.37;8.83;;;5.80;1.00;6.60;67720.00;;;;5022225;28;21004;-79
2022/01/15 10:26:19;;;;;;;9.97;8.63;;;5.80;1.00;6.70;101808.00;;;;5021801;28;20488;-78
2022/01/15 10:29:08;;;;;;;11.00;8.93;;;5.80;1.00;6.70;101802.00;;;;5023776;28;20464;-78
2022/01/15 10:31:41;;;;;;;11.57;8.67;;;6.00;1.00;6.60;67698.00;;;;5026160;28;20579;-79
2022/01/15 10:34:28;;;;;;;9.70;8.70;;;5.70;1.00;6.40;101798.00;;;;5020109;28;20456;-79
2022/01/15 10:37:07;;;;;;;9.27;8.30;;;5.40;1.00;6.40;101806.00;;;;5018871;28;20453;-78
2022/01/15 10:39:35;;;;;;;9.70;8.70;;;5.50;1.00;6.40;101799.00;;;;5018829;28;20460;-79
2022/01/15 10:42:15;;;;;;;10.50;7.87;;;5.60;1.00;6.40;101788.00;;;;5016711;28;20522;-78
2022/01/15 10:44:45;;;;;;;10.07;8.97;;;5.40;1.00;217.30;159443.00;;;;5021356;28;20453;-79
2022/01/15 10:47:16;;;;;;;11.13;8.80;;;5.50;1.00;6.60;67720.00;;;;5036525;28;20449;-79
2022/01/15 10:49:46;;;;;;;11.23;9.83;;;5.70;1.00;6.60;101798.00;;;;5018411;28;20449;-79
2022/01/15 10:52:17;;;;;;;11.23;10.10;;;5.80;1.00;6.70;101786.00;;;;5017996;28;20492;-78
2022/01/15 10:55:07;;;;;;;10.40;9.30;;;5.90;1.00;6.80;101788.00;;;;5013616;28;20524;-78
2022/01/15 10:57:38;;;;;;;9.90;8.90;;;6.00;1.00;6.90;101773.00;;;;5013861;28;20465;-79
2022/01/15 11:00:24;;;;;;;9.53;8.33;;;6.20;1.00;7.00;101772.00;;;;5013254;28;20524;-78
2022/01/15 11:02:56;;;;;;;9.60;7.80;;;6.40;1.00;7.10;67828.00;;;;5011177;28;20576;-78
2022/01/15 11:05:34;;;;;;;8.70;7.77;;;6.50;1.00;7.10;101762.00;;;;5015528;28;20465;-79
2022/01/15 11:08:16;;;;;;;8.93;8.03;;;6.60;1.00;7.20;101749.00;;;;5015596;28;20576;-79
2022/01/15 11:10:49;;;;;;;7.37;6.50;;;6.70;1.00;7.30;101751.00;;;;5016000;28;20470;-78
2022/01/15 11:13:21;;;;;;;7.93;7.00;;;6.90;1.00;7.20;101741.00;;;;5012372;28;20457;-78
2022/01/15 11:15:54;;;;;;;8.07;7.27;;;6.60;1.00;7.20;101752.00;;;;5010871;28;20463;-79
2022/01/15 11:18:24;;;;;;;8.47;7.57;;;6.50;1.00;7.20;67864.00;;;;5017187;28;20449;-79
2022/01/15 11:20:56;;;;;;;7.60;6.80;;;6.60;1.00;7.10;101733.00;;;;5022189;28;20834;-77
2022/01/15 11:23:27;;;;;;;9.27;8.07;;;6.40;1.00;7.00;67814.00;;;;5034861;28;20460;-78
2022/01/15 11:26:01;;;;;;;9.00;7.97;;;6.20;1.00;6.90;101729.00;;;;5041653;28;20735;-78